Terminal Aerodrome Forecast
Issued by NWS

Current Version | Previous Version | Text Only | Print | Product List | Glossary On
Versions: 1 2 3 4 5 6 7 8 9 10 11 12 13 14 15 16 17 18 19 20 21 22 23 24 25 26 27 28 29 30 31 32 33 34 35 36 37 38 39 40 41 42 43 44 45 46 47 48 49 50
091
FTUS41 KCTP 061612 AAA
TAFAOO
TAF AMD
KAOO 061612Z 0616/0712 01009KT P6SM -SHRA OVC025
     FM061700 36008KT 4SM -RA OVC015
     FM070000 35005KT 3SM -RADZ BR OVC009=

USA.gov is the U.S. government's official web portal to all federal, state and local government web resources and services.